Latest Coastal Weather Observations for Weipa

IDQ60701

Issued at 10:25 am EST Wednesday 24 September 2014 (issued every 10 minutes, with the page automatically refreshed every 10 minutes)

About coastal observations | Map of coastal stations | Coastal observations for QLD | Marine services | Other Formats
Station Details ID: 027045 Name: WEIPA AERO Lat: -12.68 Lon: 141.92 Height: 17.96 m
Data from the previous 72 hours. | See also: Recent months at Weipa
Date/Time
EST
Temp

°C
Wind Pressure Rain
since 9am
mm
Weather Cloud Vis
km
Sea
Height
m
Swell
Dir
 
Speed
knots
Gust
knots
hPa Trend Height
m
Period
s
Dir
24/10:00am 28.1 ESE 12 19 1015.6 - 0.0 - Partly cloudy 10 - - - -
24/09:30am 28.5 ESE 13 19 1015.7 - 0.0 - Partly cloudy 10 - - - -
24/09:00am 26.6 ESE 12 15 1015.7 R 0.0 Fine Mostly cloudy 35 - - - -
24/08:30am 26.8 ESE 10 14 1015.4 - 0.0 - Partly cloudy 10 - - - -
24/08:00am 25.6 ESE 8 13 1015.1 - 0.0 - Mostly clear 10 - - - -
24/07:30am 24.9 SE 7 10 1014.6 - 0.0 - Cloudy 10 - - - -
24/07:00am 24.2 SE 4 7 1014.3 - 0.0 - Mostly cloudy 10 - - - -
24/06:30am 24.0 ESE 6 10 1013.8 - 0.0 - Partly cloudy 10 - - - -
24/06:00am 23.9 ESE 6 10 1013.3 F 0.0 Fine Partly cloudy 30 - - - -
24/05:30am 23.9 ESE 6 9 1013.2 - 0.0 - Partly cloudy 10 - - - -
24/05:00am 23.8 E 6 8 1013.1 - 0.0 - Partly cloudy 10 - - - -
24/04:30am 24.1 ESE 3 6 1013.0 - 0.0 - Partly cloudy 10 - - - -
24/04:00am 24.1 E 5 8 1012.8 - 0.0 - Partly cloudy 10 - - - -
24/03:30am 24.4 E 7 11 1013.1 - 0.0 - Partly cloudy 10 - - - -
24/03:00am 24.8 E 7 11 1013.1 - 0.0 - Mostly cloudy 10 - - - -
24/02:30am 24.8 E 9 13 1013.5 - 0.0 - Partly cloudy 10 - - - -
24/02:00am 24.8 ESE 6 9 1013.6 - 0.0 - Partly cloudy 10 - - - -
24/01:30am 25.3 E 7 11 1013.9 - 0.0 - Partly cloudy 10 - - - -
24/01:00am 25.6 E 9 14 1013.9 - 0.0 - Partly cloudy 10 - - - -
24/12:30am 25.5 ESE 8 13 1014.0 - 0.0 - Cloudy 10 - - - -
24/12:00am 25.0 ESE 4 7 1014.1 - 0.0 - Cloudy 10 - - - -
 
Date/Time
EST
Temp

°C
Wind Pressure Rain
since 9am
mm
Weather Cloud Vis
km
Sea
Height
m
Swell
Dir
 
Speed
knots
Gust
knots
hPa Trend Height
m
Period
s
Dir
23/11:30pm 24.9 ESE 3 4 1014.4 - 0.0 - - 10 - - - -
23/11:00pm 25.2 E 4 6 1014.5 - 0.0 - - 10 - - - -
23/10:30pm 25.5 E 4 8 1014.5 - 0.0 - - 10 - - - -
23/10:00pm 25.9 E 6 10 1014.3 - 0.0 - - 10 - - - -
23/09:30pm 26.3 ESE 8 10 1013.9 - 0.0 - - 10 - - - -
23/09:00pm 26.7 E 10 16 1013.8 - 0.0 - - 10 - - - -
23/08:30pm 27.2 E 10 15 1013.5 - 0.0 - - 10 - - - -
23/08:00pm 27.6 E 5 9 1012.9 - 0.0 - - 10 - - - -
23/07:30pm 28.3 E 10 16 1012.6 - 0.0 - - 10 - - - -
23/07:00pm 29.1 E 6 15 1012.1 - 0.0 - - 10 - - - -
23/06:30pm 28.0 NNW 4 7 1011.6 - 0.0 - - 10 - - - -
23/06:00pm 28.2 W 3 6 1011.0 - 0.0 - Partly cloudy 10 - - - -
23/05:30pm 31.7 E 10 17 1010.7 - 0.0 - - 10 - - - -
23/05:00pm 33.1 E 9 15 1010.3 - 0.0 - Partly cloudy 10 - - - -
23/04:30pm 33.6 E 10 17 1010.3 - 0.0 - Partly cloudy 10 - - - -
23/04:00pm 34.4 ESE 11 17 1010.4 - 0.0 - Partly cloudy 10 - - - -
23/03:30pm 34.5 ESE 9 16 1010.5 - 0.0 - Partly cloudy 10 - - - -
23/03:00pm 34.4 E 7 14 1010.4 F 0.0 Haze Partly cloudy 15 - - - -
23/02:30pm 33.1 E 11 17 1010.8 - 0.0 - Partly cloudy 10 - - - -
23/02:00pm 33.1 ESE 10 16 1011.2 - 0.0 - Partly cloudy 10 - - - -
23/01:30pm 33.1 ESE 9 15 1011.6 - 0.0 - Partly cloudy 10 - - - -
23/01:00pm 33.4 ESE 9 17 1012.1 - 0.0 - Partly cloudy 10 - - - -
23/12:30pm 33.5 ESE 11 15 1012.6 - 0.0 - - 10 - - - -
23/12:00pm 32.5 E 10 16 1013.1 F 0.0 Haze Partly cloudy 15 - - - -
23/11:30am 30.8 E 9 16 1014.0 - 0.0 - - 10 - - - -
23/11:00am 30.5 E 11 16 1014.7 - 0.0 - Mostly clear 10 - - - -
23/10:30am 29.2 ESE 11 17 1015.1 - 0.0 - - 10 - - - -
23/10:00am 28.8 ESE 12 19 1015.2 - 0.0 - Mostly clear 10 - - - -
23/09:30am 27.9 E 9 16 1015.6 - 0.0 - Partly cloudy 10 - - - -
23/09:00am 26.3 ESE 10 14 1015.6 R 0.0 Haze Partly cloudy 20 - - - -
23/08:30am 25.6 ESE 8 13 1015.5 - 0.0 - - 10 - - - -
23/08:00am 24.2 SE 4 6 1015.4 - 0.0 - - 10 - - - -
23/07:30am 22.7 SSE 3 5 1015.0 - 0.0 - - 10 - - - -
23/07:00am 20.8 E 1 2 1014.5 - 0.0 - Mostly clear 9 - - - -
23/06:30am 20.0 SE 1 2 1013.9 - 0.0 - - 10 - - - -
23/06:00am 19.9 CALM 0 0 1013.5 F 0.0 Mist Mostly clear 9 - - - -
23/05:30am 20.5 SSE 1 2 1013.2 - 0.0 - - 10 - - - -
23/05:00am 20.9 ESE 1 2 1012.9 - 0.0 - - 10 - - - -
23/04:30am 21.7 SSE 1 2 1012.8 - 0.0 - - 10 - - - -
23/04:00am 22.0 CALM 0 0 1012.8 - 0.0 - Cloudy 10 - - - -
23/03:30am 22.1 CALM 0 0 1013.0 - 0.0 - Cloudy 10 - - - -
23/03:00am 22.7 SSE 1 1 1012.9 - 0.0 - Cloudy 10 - - - -
23/02:30am 22.8 S 1 2 1013.2 - 0.0 - Cloudy 10 - - - -
23/02:00am 22.9 E 1 2 1013.4 - 0.0 - Cloudy 10 - - - -
23/01:30am 22.6 NE 2 3 1013.7 - 0.0 - Cloudy 10 - - - -
23/01:00am 22.3 ENE 2 3 1014.0 - 0.0 - - 10 - - - -
23/12:30am 23.2 E 3 4 1014.0 - 0.0 - - 10 - - - -
23/12:00am 23.7 E 4 5 1014.0 - 0.0 - - 10 - - - -
 
Date/Time
EST
Temp

°C
Wind Pressure Rain
since 9am
mm
Weather Cloud Vis
km
Sea
Height
m
Swell
Dir
 
Speed
knots
Gust
knots
hPa Trend Height
m
Period
s
Dir
22/11:30pm 24.2 E 6 8 1014.3 - 0.0 - - 10 - - - -
22/11:00pm 24.6 E 6 7 1014.3 - 0.0 - - 10 - - - -
22/10:30pm 24.8 E 5 8 1014.1 - 0.0 - - 10 - - - -
22/10:00pm 24.1 ENE 3 5 1013.9 - 0.0 - - 10 - - - -
22/09:30pm 24.3 E 3 5 1013.5 - 0.0 - - 10 - - - -
22/09:00pm 24.4 E 1 2 1013.0 - 0.0 - - 10 - - - -
22/08:30pm 24.8 NW 2 4 1012.7 - 0.0 - - 10 - - - -
22/08:00pm 24.9 WNW 3 3 1012.3 - 0.0 - - 10 - - - -
22/07:30pm 26.1 N 2 3 1011.8 - 0.0 - - 10 - - - -
22/07:00pm 26.4 WNW 1 3 1011.4 - 0.0 - - 10 - - - -
22/06:30pm 26.9 WSW 2 4 1010.6 - 0.0 - - 10 - - - -
22/06:00pm 27.5 WSW 3 6 1010.1 - 0.0 - Cloudy 10 - - - -
22/05:30pm 28.6 W 5 9 1009.9 - 0.0 - - 10 - - - -
22/05:00pm 29.7 W 5 10 1009.9 - 0.0 - Partly cloudy 10 - - - -
22/04:30pm 30.2 W 6 10 1009.7 - 0.0 - - 10 - - - -
22/04:00pm 30.3 W 6 12 1009.7 - 0.0 - - 10 - - - -
22/03:30pm 30.5 W 7 13 1009.8 - 0.0 - - 10 - - - -
22/03:00pm 31.4 W 8 14 1009.7 F 0.0 Haze Partly cloudy 25 - - - -
22/02:30pm 31.8 WSW 7 12 1010.0 - 0.0 - Partly cloudy 10 - - - -
22/02:00pm 32.8 ESE 5 11 1010.6 - 0.0 - Partly cloudy 10 - - - -
22/01:30pm 32.4 S 7 11 1011.5 - 0.0 - Partly cloudy 10 - - - -
22/01:00pm 32.7 ESE 9 16 1012.1 - 0.0 - - 10 - - - -
22/12:30pm 31.6 SSE 7 12 1012.9 - 0.0 - - 10 - - - -
22/12:00pm 31.5 E 5 16 1013.5 F 0.0 Haze Mostly clear 30 - - - -
22/11:30am 31.1 ESE 7 15 1014.2 - 0.0 - - 10 - - - -
22/11:00am 30.1 ESE 8 14 1014.7 - 0.0 - Mostly clear 10 - - - -
22/10:30am 28.1 E 8 14 1015.1 - 0.0 - - 10 - - - -
22/10:00am 27.1 E 12 17 1015.4 - 0.0 - Mostly clear 10 - - - -
22/09:30am 26.6 E 10 16 1015.6 - 0.0 - - 10 - - - -
22/09:00am 24.9 SE 6 9 1015.8 R 0.0 Haze Mostly clear 12 - - - -
22/08:30am 23.6 SE 6 9 1015.6 - 0.0 - - 10 - - - -
22/08:00am 22.1 SSE 4 7 1015.5 - 0.0 - Mostly clear 9 - - - -
22/07:30am 20.5 S 3 5 1015.2 - 0.0 Haze Mostly clear 4 - - - -
22/07:00am 18.1 SE 1 1 1014.8 - 0.0 Mist Partly cloudy 2 - - - -
22/06:30am 17.8 CALM 0 1 1014.4 - 0.0 Shallow fog Partly cloudy 1 - - - -
22/06:00am 17.9 CALM 0 1 1013.9 F 0.0 Shallow fog Partly cloudy 1 - - - -
22/05:30am 18.1 S 1 2 1013.8 - 0.0 - - 8 - - - -
22/05:00am 18.3 CALM 0 1 1013.8 - 0.0 - - 10 - - - -
22/04:30am 18.7 CALM 0 1 1013.6 - 0.0 - - 9 - - - -
22/04:00am 19.7 SSE 3 5 1013.4 - 0.0 - - 9 - - - -
22/03:30am 19.5 SE 3 4 1013.4 - 0.0 - - 10 - - - -
22/03:00am 19.9 SSE 3 4 1013.3 - 0.0 - - 10 - - - -
22/02:30am 19.7 SSE 3 5 1013.5 - 0.0 - - 10 - - - -
22/02:00am 19.0 SSE 1 3 1013.8 - 0.0 - - 10 - - - -
22/01:30am 19.3 S 1 3 1014.2 - 0.0 - - 9 - - - -
22/01:00am 19.9 CALM 0 1 1014.5 - 0.0 - - 10 - - - -
22/12:30am 20.5 CALM 0 0 1014.7 - 0.0 - - 10 - - - -
22/12:00am 21.8 E 3 3 1014.7 - 0.0 - - 10 - - - -
 
Date/Time
EST
Temp

°C
Wind Pressure Rain
since 9am
mm
Weather Cloud Vis
km
Sea
Height
m
Swell
Dir
 
Speed
knots
Gust
knots
hPa Trend Height
m
Period
s
Dir
21/11:30pm 22.5 E 5 6 1015.2 - 0.0 - - 10 - - - -
21/11:00pm 22.6 E 3 5 1015.3 - 0.0 - - 10 - - - -
21/10:30pm 22.6 ESE 3 4 1015.4 - 0.0 - - 10 - - - -
21/10:00pm 23.1 E 4 6 1015.3 - 0.0 - - 10 - - - -
21/09:30pm 23.6 E 3 6 1015.1 - 0.0 - - 10 - - - -
21/09:00pm 23.9 SSW 1 2 1014.8 - 0.0 - - 10 - - - -
21/08:30pm 23.6 WSW 2 3 1014.3 - 0.0 - - 10 - - - -
21/08:00pm 24.6 SSW 1 2 1013.9 - 0.0 - - 10 - - - -
21/07:30pm 25.6 WNW 1 3 1013.4 - 0.0 - - 10 - - - -
21/07:00pm 26.6 W 2 3 1012.9 - 0.0 - - 10 - - - -
21/06:30pm 29.0 E 5 8 1012.3 - 0.0 - - 10 - - - -
21/06:00pm 29.9 E 7 12 1011.7 - 0.0 - - 10 - - - -
21/05:30pm 30.6 E 7 12 1011.7 - 0.0 - - 10 - - - -
21/05:00pm 30.9 E 9 14 1011.6 - 0.0 - - 10 - - - -
21/04:30pm 31.5 ENE 8 10 1011.4 - 0.0 - - 10 - - - -
21/04:00pm 32.4 ENE 9 12 1011.3 - 0.0 - - 10 - - - -
21/03:30pm 32.5 E 9 13 1011.4 - 0.0 - - 10 - - - -
21/03:00pm 32.1 E 11 15 1011.8 F 0.0 Haze Cloudy 10 - - - -
21/02:30pm 31.7 E 7 13 1012.2 - 0.0 - - 10 - - - -
21/02:00pm 31.0 NE 7 11 1012.6 - 0.0 - - 10 - - - -
21/01:30pm 31.0 E 5 10 1013.1 - 0.0 - - 10 - - - -
21/01:00pm 29.9 ENE 6 10 1013.5 - 0.0 - - 10 - - - -
21/12:30pm 29.8 E 6 11 1014.0 - 0.0 - - 10 - - - -
21/12:00pm 28.8 ESE 8 11 1014.5 - 0.0 - - 10 - - - -
21/11:30am 29.0 ESE 9 15 1015.1 - 0.0 - - 10 - - - -
21/11:00am 28.7 ESE 12 17 1015.6 - 0.0 - - 10 - - - -
21/10:30am 27.7 SE 9 12 1015.9 - 0.0 - - 10 - - - -

Other Formats:

Comma delimited format used in spreadsheet applications
http://www.bom.gov.au/fwo/IDQ60701/IDQ60701.94170.axf

JavaScript Object Notation format (JSON) in row-major order
http://www.bom.gov.au/fwo/IDQ60701/IDQ60701.94170.json